Terminal Aerodrome Forecast
Issued by NWS Pueblo, CO

Current Version | Previous Version | Text Only | Print | Product List | Glossary On
Versions: 1 2 3 4 5 6 7 8 9 10 11 12 13 14 15 16 17 18 19 20 21 22 23 24 25 26 27 28 29 30 31 32 33 34 35 36 37 38 39
000
FTUS45 KPUB 250539
TAFPUB
TAF
KPUB 250539Z 2506/2606 27005KT P6SM SKC
     FM251600 26015KT P6SM FEW130
     FM252000 28025G35KT P6SM SCT080 BKN120
     FM260300 35014KT P6SM SCT080 SCT120=

USA.gov is the U.S. government's official web portal to all federal, state and local government web resources and services.